Time;durP1;ratioP1;P1;durP2;ratioP2;P2;SDS_P1;SDS_P2;PMS_P1;PMS_P2;Temp;Humidity;BMP_temperature;BMP_pressure;BME280_temperature;BME280_humidity;BME280_pressure;Samples;Min_cycle;Max_cycle;Signal;HPM_P1;HPM_P2
2023/04/08 00:00:34;;;;;;;11.15;7.70;;;;;;;9.30;100.00;100484.50;6205815;23;20088;-84
2023/04/08 00:03:00;;;;;;;11.40;7.78;;;;;;;9.32;100.00;100476.41;6203854;23;20013;-86
2023/04/08 00:05:26;;;;;;;11.98;8.43;;;;;;;9.35;100.00;100481.38;6201464;23;20013;-85
2023/04/08 00:07:51;;;;;;;25.45;8.20;;;;;;;9.33;100.00;100475.44;6200142;23;20092;-87
2023/04/08 00:10:17;;;;;;;12.63;7.78;;;;;;;9.29;100.00;100469.63;6200222;23;20033;-84
2023/04/08 00:12:43;;;;;;;10.77;7.93;;;;;;;9.38;100.00;100480.28;6200891;23;20044;-84
2023/04/08 00:15:09;;;;;;;12.70;8.35;;;;;;;9.40;100.00;100473.00;6200672;23;20009;-85
2023/04/08 00:17:34;;;;;;;10.95;8.05;;;;;;;9.47;100.00;100476.69;6200846;23;20017;-85
2023/04/08 00:20:00;;;;;;;13.80;8.07;;;;;;;9.41;100.00;100475.50;6201724;23;20490;-84
2023/04/08 00:22:25;;;;;;;14.05;7.90;;;;;;;9.32;100.00;100474.59;6200946;23;20498;-86
2023/04/08 00:24:51;;;;;;;11.85;8.50;;;;;;;9.38;100.00;100475.78;6175998;23;20012;-88
2023/04/08 00:27:17;;;;;;;11.00;7.93;;;;;;;9.30;100.00;100473.09;6201538;23;20025;-86
2023/04/08 00:29:43;;;;;;;12.57;8.07;;;;;;;9.40;100.00;100473.84;6175442;23;20009;-84
2023/04/08 00:32:09;;;;;;;13.80;8.88;;;;;;;9.27;100.00;100473.41;6175291;23;20016;-88
2023/04/08 00:34:34;;;;;;;11.82;8.38;;;;;;;9.21;100.00;100471.41;6201350;23;20041;-86
2023/04/08 00:37:00;;;;;;;10.95;8.27;;;;;;;9.24;100.00;100479.00;6176239;23;20024;-85
2023/04/08 00:39:25;;;;;;;14.50;8.30;;;;;;;9.19;100.00;100473.34;6202416;23;20020;-84
2023/04/08 00:41:51;;;;;;;13.05;8.68;;;;;;;9.22;100.00;100470.38;6177051;23;20005;-85
2023/04/08 00:44:16;;;;;;;15.45;8.65;;;;;;;9.24;100.00;100479.00;6178869;23;20005;-83
2023/04/08 00:46:42;;;;;;;10.98;8.32;;;;;;;9.24;100.00;100479.00;6179761;23;20013;-84
2023/04/08 00:49:08;;;;;;;11.85;8.10;;;;;;;9.40;100.00;100473.00;6200835;23;20017;-85
2023/04/08 00:51:35;;;;;;;11.95;8.77;;;;;;;9.57;100.00;100474.75;6189508;23;20009;-86
2023/04/08 00:54:03;;;;;;;11.65;8.45;;;;;;;9.73;100.00;100480.97;6187408;23;20001;-85
2023/04/08 00:56:30;;;;;;;14.13;9.70;;;;;;;9.69;100.00;100484.06;6161333;23;20017;-85
2023/04/08 00:58:56;;;;;;;14.00;9.63;;;;;;;9.47;100.00;100480.16;6160768;23;20021;-84
2023/04/08 01:01:42;;;;;;;14.35;10.45;;;;;;;9.28;100.00;100481.19;6160193;23;20009;-84
2023/04/08 01:04:48;;;;;;;12.85;10.05;;;;;;;9.12;100.00;100480.22;6159997;23;20013;-84
2023/04/08 01:07:24;;;;;;;14.63;9.98;;;;;;;9.24;100.00;100486.94;6132202;23;20097;-84
2023/04/08 01:10:01;;;;;;;13.88;10.27;;;;;;;9.26;100.00;100484.97;6186504;23;20016;-85
2023/04/08 01:12:30;;;;;;;16.40;10.00;;;;;;;9.15;100.00;100479.91;6135457;23;20063;-84
2023/04/08 01:15:05;;;;;;;17.60;10.30;;;;;;;9.16;100.00;100481.59;6160233;23;20083;-84
2023/04/08 01:17:31;;;;;;;15.60;11.25;;;;;;;8.99;100.00;100474.50;6186187;23;20092;-84
2023/04/08 01:20:00;;;;;;;17.05;11.38;;;;;;;8.91;100.00;100474.47;6186160;23;20322;-86
2023/04/08 01:22:47;;;;;;;17.42;11.02;;;;;;;8.82;100.00;100474.38;6186030;23;20009;-85
2023/04/08 01:25:19;;;;;;;16.70;10.38;;;;;;;8.94;100.00;100472.34;6185899;23;20020;-86
2023/04/08 01:27:47;;;;;;;13.60;10.07;;;;;;;8.94;100.00;100474.97;6185878;23;20024;-87
2023/04/08 01:30:14;;;;;;;15.65;10.15;;;;;;;8.93;100.00;100468.03;6186373;23;20004;-87
2023/04/08 01:32:42;;;;;;;17.20;10.23;;;;;;;8.89;100.00;100465.84;6185959;23;20060;-87
2023/04/08 01:35:09;;;;;;;13.10;10.40;;;;;;;8.90;100.00;100462.22;6186566;23;20013;-85
2023/04/08 01:37:36;;;;;;;12.48;9.77;;;;;;;8.88;100.00;100453.63;6186771;23;20009;-87
2023/04/08 01:40:03;;;;;;;13.38;9.75;;;;;;;8.86;100.00;100456.41;6159964;23;20013;-86
2023/04/08 01:42:30;;;;;;;16.92;10.63;;;;;;;8.90;100.00;100462.22;6185923;23;20013;-85
2023/04/08 01:44:58;;;;;;;15.80;10.63;;;;;;;8.93;100.00;100465.38;6185678;23;20020;-86
2023/04/08 01:47:24;;;;;;;17.02;11.23;;;;;;;8.91;100.00;100461.25;6159503;23;20024;-84
2023/04/08 01:49:52;;;;;;;15.20;10.02;;;;;;;8.90;100.00;100460.41;6185751;23;20005;-85
2023/04/08 01:52:19;;;;;;;16.02;10.95;;;;;;;8.90;100.00;100462.22;6185614;23;20015;-85
2023/04/08 01:54:46;;;;;;;18.65;11.73;;;;;;;8.94;100.00;100466.22;6185615;23;20337;-85
2023/04/08 01:57:18;;;;;;;16.48;11.63;;;;;;;8.95;100.00;100473.19;6159285;23;20017;-83
2023/04/08 01:59:50;;;;;;;22.00;11.82;;;;;;;8.91;100.00;100463.88;6158969;23;20013;-86
2023/04/08 02:02:18;;;;;;;19.25;12.32;;;;;;;8.95;100.00;100465.25;6159916;23;20460;-84
2023/04/08 02:04:43;;;;;;;20.73;11.77;;;;;;;8.93;100.00;100468.03;6186212;23;20024;-84
2023/04/08 02:07:10;;;;;;;16.05;12.10;;;;;;;8.97;100.00;100461.47;6134891;23;20005;-84
2023/04/08 02:09:36;;;;;;;18.02;11.85;;;;;;;9.01;100.00;100467.28;6185680;23;20009;-83
2023/04/08 02:12:02;;;;;;;18.77;11.55;;;;;;;9.05;100.00;100473.91;6159673;23;20009;-86
2023/04/08 02:14:28;;;;;;;18.17;12.35;;;;;;;9.02;100.00;100467.09;6159103;23;20436;-86
2023/04/08 02:17:18;;;;;;;17.00;11.40;;;;;;;8.93;100.00;100469.84;6159537;23;20009;-85
2023/04/08 02:20:02;;;;;;;16.38;12.15;;;;;;;8.95;100.00;100458.13;6185724;23;20329;-85
2023/04/08 02:22:42;;;;;;;18.98;12.02;;;;;;;8.87;100.00;100462.53;6186585;23;20009;-84
2023/04/08 02:25:12;;;;;;;16.77;11.40;;;;;;;8.88;100.00;100466.84;6185667;23;20147;-83
2023/04/08 02:27:40;;;;;;;17.05;11.75;;;;;;;8.83;100.00;100469.94;6189323;23;20109;-83
2023/04/08 02:30:09;;;;;;;17.17;11.50;;;;;;;8.74;100.00;100463.75;6186517;23;20075;-83
2023/04/08 02:32:35;;;;;;;16.30;11.35;;;;;;;8.68;100.00;100461.69;6185608;23;20005;-86
2023/04/08 02:35:02;;;;;;;23.60;12.65;;;;;;;8.60;100.00;100459.00;6185311;23;20013;-83
2023/04/08 02:37:30;;;;;;;18.58;12.32;;;;;;;8.59;100.00;100457.31;6158679;23;20016;-84
2023/04/08 02:39:55;;;;;;;16.92;11.50;;;;;;;8.58;100.00;100455.69;6158861;23;20079;-83
2023/04/08 02:42:21;;;;;;;19.33;12.20;;;;;;;8.53;100.00;100457.09;6158776;23;20048;-84
2023/04/08 02:44:47;;;;;;;18.45;12.25;;;;;;;8.50;100.00;100457.41;6184928;23;20432;-84
2023/04/08 02:47:13;;;;;;;18.42;12.80;;;;;;;8.52;100.00;100460.69;6134516;23;20442;-86
2023/04/08 02:49:39;;;;;;;21.30;12.55;;;;;;;8.45;100.00;100455.19;6185040;23;20064;-86
2023/04/08 02:52:04;;;;;;;22.52;12.90;;;;;;;8.52;100.00;100455.41;6185312;23;20075;-88
2023/04/08 02:54:30;;;;;;;20.35;12.82;;;;;;;8.56;100.00;100454.97;6159073;23;20444;-87
2023/04/08 02:56:55;;;;;;;16.52;12.70;;;;;;;8.49;100.00;100461.84;6159081;23;20036;-84
2023/04/08 02:59:21;;;;;;;18.23;12.35;;;;;;;8.47;100.00;100453.25;6185388;23;20016;-85
2023/04/08 03:01:46;;;;;;;18.38;12.70;;;;;;;8.60;100.00;100455.50;6158550;23;20017;-86
2023/04/08 03:04:12;;;;;;;19.17;12.23;;;;;;;8.65;100.00;100456.72;6185129;23;20339;-84
2023/04/08 03:06:37;;;;;;;22.08;12.57;;;;;;;8.64;100.00;100454.25;6158908;23;20010;-84
2023/04/08 03:09:04;;;;;;;21.17;13.05;;;;;;;8.58;100.00;100463.59;6185120;23;20087;-84
2023/04/08 03:11:30;;;;;;;17.30;12.88;;;;;;;8.39;100.00;100461.06;6184902;23;20013;-83
2023/04/08 03:13:56;;;;;;;21.23;13.38;;;;;;;8.35;100.00;100458.91;6185109;23;20045;-85
2023/04/08 03:16:21;;;;;;;20.83;12.75;;;;;;;8.39;100.00;100463.72;6185600;23;20016;-86
2023/04/08 03:18:48;;;;;;;18.65;12.55;;;;;;;8.35;100.00;100470.31;6187242;23;20013;-87
2023/04/08 03:21:14;;;;;;;19.15;13.00;;;;;;;8.59;100.00;100467.88;6187390;23;20001;-85
2023/04/08 03:23:40;;;;;;;20.83;13.60;;;;;;;8.53;100.00;100460.56;6187151;23;20005;-85
2023/04/08 03:26:05;;;;;;;22.85;13.18;;;;;;;8.52;100.00;100465.97;6187336;23;20020;-85
2023/04/08 03:28:30;;;;;;;22.10;13.90;;;;;;;8.58;100.00;100466.25;6188378;23;20017;-84
2023/04/08 03:30:56;;;;;;;19.05;13.38;;;;;;;8.66;100.00;100468.13;6160695;23;20340;-86
2023/04/08 03:33:21;;;;;;;18.75;12.88;;;;;;;8.60;100.00;100468.72;6187107;23;20012;-85
2023/04/08 03:35:47;;;;;;;24.08;14.40;;;;;;;8.48;100.00;100476.06;6187149;23;20001;-85
2023/04/08 03:38:12;;;;;;;20.08;13.40;;;;;;;8.50;100.00;100460.88;6187484;23;20417;-84
2023/04/08 03:40:38;;;;;;;21.23;13.18;;;;;;;8.43;100.00;100467.72;6187035;23;20075;-86
2023/04/08 03:43:05;;;;;;;22.77;13.98;;;;;;;8.35;100.00;100470.31;6187041;23;20036;-85
2023/04/08 03:45:31;;;;;;;19.85;14.02;;;;;;;8.28;100.00;100474.50;6186812;23;20400;-85
2023/04/08 03:47:56;;;;;;;23.70;14.98;;;;;;;8.24;100.00;100473.94;6160266;23;20012;-85
2023/04/08 03:50:22;;;;;;;24.30;14.82;;;;;;;8.15;100.00;100474.00;6186842;23;20020;-86
2023/04/08 03:52:48;;;;;;;25.38;14.60;;;;;;;8.14;100.00;100473.16;6161405;23;20007;-84
2023/04/08 03:55:14;;;;;;;21.40;14.15;;;;;;;8.15;100.00;100479.28;6187223;23;20084;-83
2023/04/08 03:57:39;;;;;;;24.10;14.82;;;;;;;8.04;100.00;100477.66;6187212;23;20013;-86
2023/04/08 04:00:06;;;;;;;25.30;15.32;;;;;;;8.01;100.00;100488.53;6188615;23;20004;-83
2023/04/08 04:02:37;;;;;;;23.23;15.18;;;;;;;8.21;100.00;100479.53;6186960;23;20024;-84
2023/04/08 04:05:03;;;;;;;21.50;13.75;;;;;;;8.34;100.00;100478.34;6186855;23;20009;-85
2023/04/08 04:07:29;;;;;;;25.10;15.95;;;;;;;8.47;100.00;100484.09;6186447;23;20009;-84
2023/04/08 04:09:55;;;;;;;24.40;14.65;;;;;;;8.46;100.00;100483.28;6187208;23;20009;-84
2023/04/08 04:12:22;;;;;;;24.60;16.80;;;;;;;8.38;100.00;100482.38;6186973;23;20016;-84
2023/04/08 04:14:50;;;;;;;23.83;15.93;;;;;;;8.12;100.00;100479.59;6190521;23;20043;-84
2023/04/08 04:17:15;;;;;;;23.35;16.65;;;;;;;7.84;100.00;100480.53;6191567;23;20048;-83
2023/04/08 04:19:41;;;;;;;33.58;17.90;;;;;;;7.73;100.00;100485.03;6192352;23;20036;-86
2023/04/08 04:22:06;;;;;;;29.77;18.02;;;;;;;7.58;100.00;100481.19;6192834;23;20005;-84
2023/04/08 04:24:32;;;;;;;32.72;18.92;;;;;;;7.54;100.00;100485.09;6191895;23;20067;-84
2023/04/08 04:26:57;;;;;;;31.67;18.92;;;;;;;7.45;100.00;100480.69;6191856;23;20024;-84
2023/04/08 04:29:23;;;;;;;27.70;17.70;;;;;;;7.44;100.00;100489.56;6190418;23;20397;-83
2023/04/08 04:31:48;;;;;;;32.88;19.45;;;;;;;7.41;100.00;100489.00;6191231;23;20033;-83
2023/04/08 04:34:14;;;;;;;28.45;19.02;;;;;;;7.42;100.00;100491.53;6190684;23;20357;-87
2023/04/08 04:36:39;;;;;;;29.00;18.30;;;;;;;7.36;100.00;100493.91;6191066;23;20032;-85
2023/04/08 04:39:05;;;;;;;26.38;18.38;;;;;;;7.32;100.00;100490.72;6190633;23;20077;-84
2023/04/08 04:41:31;;;;;;;30.95;17.75;;;;;;;7.28;100.00;100500.72;6190331;23;20341;-84
2023/04/08 04:43:56;;;;;;;31.40;18.92;;;;;;;7.41;100.00;100500.41;6188625;23;20009;-83
2023/04/08 04:46:22;;;;;;;28.77;17.45;;;;;;;7.45;100.00;100504.41;6188289;23;20309;-84
2023/04/08 04:48:47;;;;;;;29.05;17.52;;;;;;;7.54;100.00;100511.47;6190707;23;20009;-85
2023/04/08 04:51:16;;;;;;;28.75;17.05;;;;;;;7.65;100.00;100505.19;6190813;23;20384;-88
2023/04/08 04:53:41;;;;;;;26.70;16.58;;;;;;;7.84;100.00;100507.75;6190796;23;20020;-86
2023/04/08 04:56:06;;;;;;;24.50;15.63;;;;;;;7.96;100.00;100513.66;6190961;23;20445;-84
2023/04/08 04:58:33;;;;;;;27.45;16.23;;;;;;;7.90;100.00;100516.88;6163271;23;20012;-85
2023/04/08 05:01:03;;;;;;;27.55;15.57;;;;;;;7.98;100.00;100517.00;6191623;23;20009;-84
2023/04/08 05:03:30;;;;;;;28.50;16.30;;;;;;;8.12;100.00;100519.97;6193007;23;20009;-85
2023/04/08 05:05:57;;;;;;;25.20;16.80;;;;;;;8.22;100.00;100528.69;6192901;23;20036;-86
2023/04/08 05:08:24;;;;;;;22.55;15.63;;;;;;;8.20;100.00;100532.47;6190206;23;20064;-85
2023/04/08 05:10:51;;;;;;;26.10;16.25;;;;;;;8.32;100.00;100533.94;6189055;23;20013;-83
2023/04/08 05:13:17;;;;;;;30.55;17.52;;;;;;;8.28;100.00;100537.88;6162095;23;20013;-85
2023/04/08 05:15:46;;;;;;;25.05;16.27;;;;;;;8.26;100.00;100545.06;6188390;23;20013;-86
2023/04/08 05:18:12;;;;;;;28.20;16.10;;;;;;;8.25;100.00;100541.59;6161468;23;20061;-84
2023/04/08 05:20:39;;;;;;;25.30;16.17;;;;;;;8.38;100.00;100543.94;6188996;23;20433;-85
2023/04/08 05:23:04;;;;;;;21.92;14.48;;;;;;;8.83;100.00;100550.03;6161226;23;20016;-86
2023/04/08 05:25:30;;;;;;;24.85;15.45;;;;;;;8.89;100.00;100553.03;6161748;23;20449;-84
2023/04/08 05:27:56;;;;;;;27.00;15.68;;;;;;;9.10;100.00;100543.84;6187562;23;20021;-85
2023/04/08 05:30:21;;;;;;;22.67;14.73;;;;;;;9.04;100.00;100551.56;6161953;23;20016;-86
2023/04/08 05:32:47;;;;;;;22.23;14.50;;;;;;;9.07;100.00;100548.59;6162326;23;20005;-84
2023/04/08 05:35:12;;;;;;;24.13;15.10;;;;;;;8.75;100.00;100552.59;6187626;23;20020;-85
2023/04/08 05:37:38;;;;;;;25.50;15.18;;;;;;;8.66;100.00;100556.13;6189938;23;20033;-87
2023/04/08 05:40:07;;;;;;;27.23;16.10;;;;;;;9.12;100.00;100551.63;6190269;23;20356;-86
2023/04/08 05:42:33;;;;;;;25.30;15.63;;;;;;;9.15;100.00;100553.94;6162259;23;20040;-86
2023/04/08 05:44:59;;;;;;;27.35;15.48;;;;;;;9.76;100.00;100553.94;6189579;23;20020;-84
2023/04/08 05:47:24;;;;;;;27.50;15.85;;;;;;;9.42;100.00;100553.84;6165831;23;20021;-89
2023/04/08 05:49:51;;;;;;;26.10;15.40;;;;;;;10.54;100.00;100550.16;6192604;23;20037;-89
2023/04/08 05:52:17;;;;;;;25.38;14.77;;;;;;;11.42;100.00;100543.34;6189681;23;20005;-90
2023/04/08 05:54:43;;;;;;;24.48;15.88;;;;;;;11.56;100.00;100555.94;6164549;23;20037;-90
2023/04/08 05:57:09;;;;;;;31.65;15.68;;;;;;;11.01;100.00;100562.88;6192205;23;20437;-91
2023/04/08 05:59:35;;;;;;;23.83;15.70;;;;;;;11.05;100.00;100558.91;6141293;23;20016;-90
2023/04/08 06:02:00;;;;;;;21.77;15.27;;;;;;;10.61;100.00;100561.78;6189764;23;20009;-88
2023/04/08 06:04:26;;;;;;;23.55;14.98;;;;;;;11.13;100.00;100567.72;6188036;23;20017;-86
2023/04/08 06:06:51;;;;;;;23.10;14.95;;;;;;;10.89;100.00;100571.16;6189250;23;20015;-89
2023/04/08 06:09:17;;;;;;;27.98;15.15;;;;;;;10.59;100.00;100574.38;6189569;23;20016;-88
2023/04/08 06:11:43;;;;;;;21.00;14.98;;;;;;;11.33;100.00;100579.63;6138535;23;20035;-88
2023/04/08 06:14:08;;;;;;;22.70;13.63;;;;;;;12.70;100.00;100581.16;6195291;23;20019;-88
2023/04/08 06:16:34;;;;;;;21.17;14.13;;;;;;;12.57;100.00;100583.56;6190394;23;20073;-88
2023/04/08 06:18:59;;;;;;;23.52;13.90;;;;;;;12.95;100.00;100577.38;6189136;23;20039;-89
2023/04/08 06:21:25;;;;;;;21.73;13.38;;;;;;;13.67;97.75;100579.66;6191805;23;20063;-87
2023/04/08 06:23:51;;;;;;;19.50;13.68;;;;;;;13.06;99.72;100580.66;6164937;23;20008;-87
2023/04/08 06:26:16;;;;;;;23.58;14.70;;;;;;;12.42;100.00;100579.97;6188577;23;20435;-85
2023/04/08 06:28:42;;;;;;;23.88;13.80;;;;;;;13.00;100.00;100576.00;6188451;23;20045;-85
2023/04/08 06:31:08;;;;;;;20.70;14.43;;;;;;;13.13;100.00;100581.59;6188733;23;20019;-87
2023/04/08 06:33:33;;;;;;;21.58;14.32;;;;;;;13.41;99.48;100585.38;6188885;23;20005;-88
2023/04/08 06:36:04;;;;;;;22.90;14.23;;;;;;;14.12;93.86;100581.41;6190356;23;20009;-86
2023/04/08 06:38:30;;;;;;;19.08;12.95;;;;;;;13.41;99.43;100585.38;6196707;23;20009;-85
2023/04/08 06:41:05;;;;;;;23.23;14.25;;;;;;;13.12;100.00;100590.59;6171426;23;20013;-83
2023/04/08 06:43:31;;;;;;;20.13;14.02;;;;;;;13.78;97.27;100588.06;6192014;23;20005;-84
2023/04/08 06:45:57;;;;;;;21.17;13.35;;;;;;;13.92;96.58;100595.22;6164480;23;20001;-86
2023/04/08 06:48:31;;;;;;;18.38;13.23;;;;;;;14.57;91.95;100588.38;6190889;23;20072;-86
2023/04/08 06:50:58;;;;;;;18.40;13.05;;;;;;;15.34;87.92;100594.78;6191332;23;20016;-86
2023/04/08 06:53:25;;;;;;;24.23;13.07;;;;;;;14.80;88.37;100595.25;6195004;23;20009;-87
2023/04/08 06:56:03;;;;;;;20.33;12.75;;;;;;;14.59;92.70;100589.84;6176507;23;20009;-83
2023/04/08 06:59:08;;;;;;;22.40;13.25;;;;;;;13.98;98.74;100597.19;6181309;23;20069;-85
2023/04/08 07:01:40;;;;;;;18.35;13.02;;;;;;;15.04;92.00;100590.56;6154745;23;20068;-85
2023/04/08 07:04:16;;;;;;;21.60;13.55;;;;;;;14.29;97.38;100585.50;6197009;23;20068;-84
2023/04/08 07:06:49;;;;;;;23.95;12.50;;;;;;;14.59;97.10;100589.00;6217805;23;19997;-86
2023/04/08 07:09:14;;;;;;;23.77;12.98;;;;;;;15.13;93.21;100584.91;6232324;23;20076;-87
2023/04/08 07:11:43;;;;;;;23.52;11.82;;;;;;;15.02;91.86;100593.41;6232328;23;20009;-86
2023/04/08 07:14:11;;;;;;;18.15;10.90;;;;;;;14.91;90.43;100597.41;6233802;23;19997;-85
2023/04/08 07:16:36;;;;;;;22.67;12.52;;;;;;;14.83;91.20;100594.84;6204183;23;20004;-87
2023/04/08 07:19:02;;;;;;;15.90;11.63;;;;;;;15.06;88.88;100593.88;6230272;23;20035;-88
2023/04/08 07:21:29;;;;;;;15.68;11.23;;;;;;;14.93;91.26;100599.91;6226815;23;20016;-85
2023/04/08 07:23:55;;;;;;;15.75;11.20;;;;;;;15.12;89.89;100596.59;6192700;23;20340;-85
2023/04/08 07:26:21;;;;;;;20.50;11.50;;;;;;;15.32;88.28;100597.63;6227676;23;20011;-89
2023/04/08 07:28:48;;;;;;;18.65;11.82;;;;;;;15.82;87.87;100591.31;6179613;23;20032;-87
2023/04/08 07:31:16;;;;;;;16.67;11.27;;;;;;;16.47;80.78;100601.59;6206778;23;20013;-87
2023/04/08 07:33:43;;;;;;;18.02;12.02;;;;;;;17.52;73.61;100598.44;6174784;23;20565;-84
2023/04/08 07:36:13;;;;;;;17.00;11.80;;;;;;;17.61;72.83;100607.09;6224739;23;20016;-84
2023/04/08 07:38:39;;;;;;;19.00;11.15;;;;;;;18.42;65.59;100614.66;6216137;23;20001;-84
2023/04/08 07:41:05;;;;;;;16.98;10.95;;;;;;;17.95;66.98;100613.09;6191072;23;20004;-83
2023/04/08 07:43:31;;;;;;;16.10;10.55;;;;;;;17.99;66.91;100608.16;6216847;23;20024;-86
2023/04/08 07:46:06;;;;;;;15.63;11.40;;;;;;;17.39;69.84;100612.66;6214112;23;20331;-88
2023/04/08 07:48:33;;;;;;;19.45;11.48;;;;;;;18.01;65.66;100623.00;6216136;23;20435;-84
2023/04/08 07:51:04;;;;;;;17.95;12.23;;;;;;;17.78;68.17;100616.41;6225976;23;20012;-87
2023/04/08 07:53:30;;;;;;;15.83;11.57;;;;;;;18.53;63.79;100623.94;6229471;23;20126;-89
2023/04/08 07:56:26;;;;;;;19.00;11.93;;;;;;;19.07;63.07;100623.50;6227594;22;20249;-84
2023/04/08 07:58:51;;;;;;;19.40;14.30;;;;;;;18.48;61.27;100619.19;6134912;23;20495;-87
2023/04/08 08:01:19;;;;;;;24.45;15.20;;;;;;;18.31;61.67;100618.00;6137760;23;19994;-89
2023/04/08 08:03:46;;;;;;;23.30;14.38;;;;;;;17.98;66.02;100615.38;6134939;23;20037;-85
2023/04/08 08:06:12;;;;;;;21.00;15.50;;;;;;;17.25;66.73;100610.13;6134443;23;20029;-86
2023/04/08 08:08:38;;;;;;;25.52;16.13;;;;;;;17.70;65.58;100614.75;6123958;23;20328;-89
2023/04/08 08:11:06;;;;;;;22.25;16.15;;;;;;;19.02;58.80;100620.66;6199595;23;20015;-88
2023/04/08 08:13:33;;;;;;;26.75;15.98;;;;;;;18.96;58.59;100626.88;6195762;23;20081;-88
2023/04/08 08:15:58;;;;;;;20.65;15.80;;;;;;;18.53;60.49;100626.63;6221026;23;20013;-88
2023/04/08 08:18:44;;;;;;;25.25;15.27;;;;;;;19.19;55.86;100623.66;6221440;23;20024;-89
2023/04/08 08:21:10;;;;;;;21.85;15.05;;;;;;;19.03;56.54;100623.13;6198559;23;20683;-84
2023/04/08 08:23:36;;;;;;;21.50;15.73;;;;;;;18.53;59.52;100626.63;6217913;23;20008;-88
2023/04/08 08:26:10;;;;;;;23.13;15.57;;;;;;;18.78;59.12;100624.06;6216750;23;20297;-83
2023/04/08 08:28:38;;;;;;;23.23;15.82;;;;;;;19.64;55.93;100636.00;6217988;23;20012;-87
2023/04/08 08:31:05;;;;;;;21.60;16.70;;;;;;;18.99;56.09;100629.94;6216636;23;20016;-84
2023/04/08 08:33:34;;;;;;;26.42;16.60;;;;;;;20.57;49.78;100643.03;6220149;23;20005;-88
2023/04/08 08:36:00;;;;;;;23.95;16.30;;;;;;;20.34;50.61;100647.41;6224395;23;20008;-87
2023/04/08 08:38:26;;;;;;;23.08;16.05;;;;;;;20.83;49.48;100647.28;6225999;23;20019;-90
2023/04/08 08:40:56;;;;;;;25.17;16.52;;;;;;;20.62;47.55;100661.19;6222058;23;20024;-88
2023/04/08 08:43:26;;;;;;;21.75;16.38;;;;;;;20.42;48.49;100644.41;6222449;23;20012;-90
2023/04/08 08:45:52;;;;;;;21.17;15.23;;;;;;;20.75;47.67;100644.88;6197194;23;20298;-88
2023/04/08 08:48:18;;;;;;;21.95;14.40;;;;;;;21.39;45.71;100659.63;6202721;23;20008;-88
2023/04/08 08:50:44;;;;;;;20.02;14.48;;;;;;;21.70;42.99;100659.38;6201385;23;20096;-89
2023/04/08 08:53:10;;;;;;;24.50;16.38;;;;;;;21.07;45.17;100654.44;6148947;23;20016;-89
2023/04/08 08:55:37;;;;;;;25.40;16.02;;;;;;;21.04;45.21;100659.47;6202272;23;20331;-86
2023/04/08 08:58:03;;;;;;;21.77;15.32;;;;;;;21.05;45.00;100658.38;6238696;23;20021;-85
2023/04/08 09:00:34;;;;;;;22.35;16.40;;;;;;;20.43;47.13;100662.22;6202537;23;20012;-86
2023/04/08 09:03:18;;;;;;;20.63;14.80;;;;;;;21.02;45.02;100662.38;6203173;23;20012;-87
2023/04/08 09:05:58;;;;;;;24.63;17.35;;;;;;;20.47;46.31;100653.50;6228526;23;20116;-88
2023/04/08 09:08:31;;;;;;;23.88;17.35;;;;;;;20.51;47.40;100651.19;6201738;23;20019;-86
2023/04/08 09:11:13;;;;;;;24.63;17.20;;;;;;;20.34;48.01;100652.81;6227103;23;20091;-87
2023/04/08 09:13:42;;;;;;;29.42;17.33;;;;;;;20.82;45.96;100653.72;6228596;23;20015;-86
2023/04/08 09:16:09;;;;;;;24.92;16.65;;;;;;;21.18;43.98;100646.66;6176619;23;20017;-84
2023/04/08 09:18:39;;;;;;;28.65;17.17;;;;;;;20.71;46.19;100649.09;6200008;23;20015;-89
2023/04/08 09:21:08;;;;;;;26.42;18.02;;;;;;;20.39;47.49;100644.88;6226698;23;20017;-87
2023/04/08 09:23:40;;;;;;;26.45;17.63;;;;;;;20.43;47.78;100640.69;6195728;23;20000;-86
2023/04/08 09:26:08;;;;;;;30.47;17.43;;;;;;;20.89;45.23;100643.69;6219966;23;20009;-84
2023/04/08 09:28:33;;;;;;;26.70;17.13;;;;;;;20.40;46.45;100636.59;6219201;23;20012;-88
2023/04/08 09:30:59;;;;;;;22.80;16.27;;;;;;;21.74;44.37;100633.59;6192800;23;20443;-87
2023/04/08 09:33:30;;;;;;;23.75;17.08;;;;;;;21.76;41.46;100626.06;6219942;23;20031;-88
2023/04/08 09:35:57;;;;;;;21.00;15.50;;;;;;;22.16;40.03;100637.03;6186663;23;20021;-88
2023/04/08 09:38:22;;;;;;;24.77;15.90;;;;;;;21.65;42.26;100626.84;6197298;23;20373;-88
2023/04/08 09:40:49;;;;;;;19.92;14.20;;;;;;;21.08;43.99;100626.41;6218092;23;20012;-87
2023/04/08 09:43:21;;;;;;;20.73;15.07;;;;;;;20.61;45.33;100628.03;6197833;23;20008;-91
2023/04/08 09:45:47;;;;;;;24.23;15.65;;;;;;;20.57;45.63;100620.66;6193349;23;20020;-88
2023/04/08 09:48:18;;;;;;;24.40;14.30;;;;;;;21.08;44.26;100628.28;6221733;23;20016;-92
2023/04/08 09:50:49;;;;;;;22.80;15.45;;;;;;;21.63;41.21;100618.19;6200062;23;20069;-92
2023/04/08 09:53:45;;;;;;;24.80;16.33;;;;;;;21.26;42.14;100622.06;6199518;23;20020;-89
2023/04/08 09:56:12;;;;;;;28.60;15.98;;;;;;;22.74;37.97;100615.38;6201325;23;20027;-90
2023/04/08 09:58:45;;;;;;;24.02;16.88;;;;;;;22.55;37.50;100619.25;6194072;23;20056;-88
2023/04/08 10:01:21;;;;;;;24.58;16.10;;;;;;;21.60;38.41;100618.66;6181626;23;20011;-91
2023/04/08 10:03:53;;;;;;;23.92;17.45;;;;;;;21.50;37.75;100618.41;6221925;23;20400;-88
2023/04/08 10:06:21;;;;;;;24.73;17.25;;;;;;;21.14;39.04;100622.84;6218536;23;20012;-89
2023/04/08 10:08:47;;;;;;;26.20;17.10;;;;;;;21.70;37.05;100620.78;6222401;23;20016;-86
2023/04/08 10:11:15;;;;;;;28.50;16.08;;;;;;;22.14;36.32;100621.06;6193003;23;20348;-88
2023/04/08 10:13:41;;;;;;;27.75;17.60;;;;;;;21.44;38.16;100608.53;6223785;23;20008;-89
2023/04/08 10:16:26;;;;;;;27.25;17.25;;;;;;;21.32;37.46;100603.09;6221551;23;20020;-89
2023/04/08 10:18:55;;;;;;;27.52;17.73;;;;;;;21.30;37.40;100607.09;6216851;23;20017;-89
2023/04/08 10:21:32;;;;;;;25.17;16.13;;;;;;;21.85;36.41;100613.88;6219019;23;20001;-89
2023/04/08 10:24:00;;;;;;;30.85;16.75;;;;;;;22.44;35.70;100612.00;6221374;23;20340;-86
2023/04/08 10:26:37;;;;;;;24.13;16.08;;;;;;;22.12;35.59;100609.69;6217974;23;20008;-89
2023/04/08 10:29:17;;;;;;;27.63;18.45;;;;;;;20.95;37.75;100607.72;6165576;23;20016;-85
2023/04/08 10:31:47;;;;;;;24.58;16.88;;;;;;;21.53;38.07;100607.97;6217215;23;20436;-89
2023/04/08 10:34:25;;;;;;;26.55;17.88;;;;;;;22.64;34.94;100609.72;6218381;23;20074;-87
2023/04/08 10:36:52;;;;;;;26.73;16.48;;;;;;;23.15;34.88;100611.59;6218350;23;20013;-83
2023/04/08 10:39:19;;;;;;;30.48;19.48;;;;;;;23.23;31.28;100616.63;6201653;23;20344;-87
2023/04/08 10:41:46;;;;;;;27.23;18.73;;;;;;;22.64;32.52;100618.66;6233491;22;20043;-88
2023/04/08 10:44:20;;;;;;;31.55;19.83;;;;;;;21.44;36.33;100608.53;6188830;23;20016;-86
2023/04/08 10:46:50;;;;;;;33.05;19.25;;;;;;;20.87;36.07;100615.31;6232938;23;20023;-85
2023/04/08 10:49:16;;;;;;;44.50;29.08;;;;;;;21.03;35.90;100599.34;6223465;23;20013;-87
2023/04/08 10:51:44;;;;;;;29.77;19.88;;;;;;;21.64;34.68;100601.75;6168743;23;20408;-85
2023/04/08 10:54:15;;;;;;;26.85;18.92;;;;;;;21.76;32.99;100609.88;6204230;23;20072;-87
2023/04/08 10:56:47;;;;;;;26.38;19.52;;;;;;;22.11;33.85;100607.22;6199333;23;20004;-84
2023/04/08 10:59:16;;;;;;;30.57;17.77;;;;;;;22.89;32.31;100615.69;6173676;23;20012;-89
2023/04/08 11:01:44;;;;;;;29.50;18.25;;;;;;;23.49;30.68;100599.78;6199208;23;20452;-86
2023/04/08 11:04:14;;;;;;;28.27;18.48;;;;;;;24.55;29.34;100614.13;6225140;23;20009;-85
2023/04/08 11:09:41;;;;;;;32.58;19.10;;;;;;;22.64;33.44;100609.72;6232151;22;20017;-86
2023/04/08 11:12:06;;;;;;;34.35;20.38;;;;;;;22.02;33.96;100600.53;6227185;23;20013;-87
2023/04/08 11:14:33;;;;;;;30.95;17.25;;;;;;;22.81;33.67;100597.13;6207238;23;20029;-87
2023/04/08 11:17:25;;;;;;;31.38;20.30;;;;;;;22.90;32.32;100601.09;6187607;23;20039;-88